Oudenaarde, Belgium
Current Conditions -  °F | °C
As of 8:25 AM on Sunday 23 Nov 2014 (Local Time) from EBCV Reporting Station
Scattered Clouds Scattered Clouds  
Wind Chill: 50°   Ceiling: Unl
Heat Index: 50°   Visibility: 6mi
Dew Point: 48°   Wind: 7mph
Humidity: 94%   Direction: 170°S
Pressure: 30"   Gusts: NA
Location:  50.85°N, 3.61°E
Report Text: EBCV 230725Z AUTO 17006KT 9999 SCT240/// 10/09 Q1016 BLU
Loading
Personal Weather Stations






























Interactive Weather Map New forecast layout! Learn more

10-Day Weather Forecast

Advertisements
Track Severe Weather on mobile